sensor_id;sensor_type;location;lat;lon;timestamp;temperature;humidity
41471;DHT22;27211;51.220;5.308;2022-07-01T00:00:16;15.20;99.90
41471;DHT22;27211;51.220;5.308;2022-07-01T00:02:47;15.10;99.90
41471;DHT22;27211;51.220;5.308;2022-07-01T00:05:16;15.10;99.90
41471;DHT22;27211;51.220;5.308;2022-07-01T00:07:52;15.10;99.90
41471;DHT22;27211;51.220;5.308;2022-07-01T00:10:20;14.90;99.90
41471;DHT22;27211;51.220;5.308;2022-07-01T00:12:46;14.70;99.90
41471;DHT22;27211;51.220;5.308;2022-07-01T00:15:12;14.80;99.90
41471;DHT22;27211;51.220;5.308;2022-07-01T00:17:38;14.60;99.90
41471;DHT22;27211;51.220;5.308;2022-07-01T00:20:05;14.40;99.90
41471;DHT22;27211;51.220;5.308;2022-07-01T00:22:33;14.50;99.90
41471;DHT22;27211;51.220;5.308;2022-07-01T00:24:59;14.60;99.90
41471;DHT22;27211;51.220;5.308;2022-07-01T00:27:26;14.40;99.90
41471;DHT22;27211;51.220;5.308;2022-07-01T00:29:51;14.50;99.90
41471;DHT22;27211;51.220;5.308;2022-07-01T00:32:18;14.40;99.90
41471;DHT22;27211;51.220;5.308;2022-07-01T00:34:44;14.40;99.90
41471;DHT22;27211;51.220;5.308;2022-07-01T00:37:09;14.50;99.90
41471;DHT22;27211;51.220;5.308;2022-07-01T00:39:36;14.40;99.90
41471;DHT22;27211;51.220;5.308;2022-07-01T00:42:03;14.30;99.90
41471;DHT22;27211;51.220;5.308;2022-07-01T00:44:30;14.40;99.90
41471;DHT22;27211;51.220;5.308;2022-07-01T00:46:57;14.50;99.90
41471;DHT22;27211;51.220;5.308;2022-07-01T00:49:24;14.30;99.90
41471;DHT22;27211;51.220;5.308;2022-07-01T00:51:52;14.20;99.90
41471;DHT22;27211;51.220;5.308;2022-07-01T00:54:19;14.30;99.90
41471;DHT22;27211;51.220;5.308;2022-07-01T00:56:45;14.20;99.90
41471;DHT22;27211;51.220;5.308;2022-07-01T00:59:12;14.10;99.90
41471;DHT22;27211;51.220;5.308;2022-07-01T01:01:38;14.10;99.90
41471;DHT22;27211;51.220;5.308;2022-07-01T01:04:04;13.90;99.90
41471;DHT22;27211;51.220;5.308;2022-07-01T01:06:30;13.80;99.90
41471;DHT22;27211;51.220;5.308;2022-07-01T01:08:57;13.80;99.90
41471;DHT22;27211;51.220;5.308;2022-07-01T01:11:23;13.80;99.90
41471;DHT22;27211;51.220;5.308;2022-07-01T01:13:49;13.70;99.90
41471;DHT22;27211;51.220;5.308;2022-07-01T01:16:28;14.00;99.90
41471;DHT22;27211;51.220;5.308;2022-07-01T01:18:57;14.50;99.90
41471;DHT22;27211;51.220;5.308;2022-07-01T01:21:27;14.20;99.90
41471;DHT22;27211;51.220;5.308;2022-07-01T01:24:00;14.40;99.90
41471;DHT22;27211;51.220;5.308;2022-07-01T01:29:42;14.50;99.90
41471;DHT22;27211;51.220;5.308;2022-07-01T01:32:11;14.20;99.90
41471;DHT22;27211;51.220;5.308;2022-07-01T01:34:41;14.10;99.90
41471;DHT22;27211;51.220;5.308;2022-07-01T01:37:10;14.00;99.90
41471;DHT22;27211;51.220;5.308;2022-07-01T01:39:36;14.00;99.90
41471;DHT22;27211;51.220;5.308;2022-07-01T01:42:06;14.00;99.90
41471;DHT22;27211;51.220;5.308;2022-07-01T01:44:33;14.00;99.90
41471;DHT22;27211;51.220;5.308;2022-07-01T01:47:07;13.90;99.90
41471;DHT22;27211;51.220;5.308;2022-07-01T01:49:33;14.00;99.90
41471;DHT22;27211;51.220;5.308;2022-07-01T01:52:03;13.90;99.90
41471;DHT22;27211;51.220;5.308;2022-07-01T01:54:32;14.10;99.90
41471;DHT22;27211;51.220;5.308;2022-07-01T01:57:03;14.00;99.90
41471;DHT22;27211;51.220;5.308;2022-07-01T01:59:40;13.90;99.90
41471;DHT22;27211;51.220;5.308;2022-07-01T02:02:19;13.80;99.90
41471;DHT22;27211;51.220;5.308;2022-07-01T02:05:20;13.70;99.90
41471;DHT22;27211;51.220;5.308;2022-07-01T02:08:24;13.80;99.90
41471;DHT22;27211;51.220;5.308;2022-07-01T02:10:52;14.10;99.90
41471;DHT22;27211;51.220;5.308;2022-07-01T02:13:28;13.90;99.90
41471;DHT22;27211;51.220;5.308;2022-07-01T02:15:56;14.10;99.90
41471;DHT22;27211;51.220;5.308;2022-07-01T02:18:40;14.00;99.90
41471;DHT22;27211;51.220;5.308;2022-07-01T02:21:09;14.00;99.90
41471;DHT22;27211;51.220;5.308;2022-07-01T02:23:38;13.90;99.90
41471;DHT22;27211;51.220;5.308;2022-07-01T02:26:07;14.00;99.90
41471;DHT22;27211;51.220;5.308;2022-07-01T02:28:36;14.10;99.90
41471;DHT22;27211;51.220;5.308;2022-07-01T02:31:02;14.00;99.90
41471;DHT22;27211;51.220;5.308;2022-07-01T02:33:33;14.00;99.90
41471;DHT22;27211;51.220;5.308;2022-07-01T02:35:59;13.90;99.90
41471;DHT22;27211;51.220;5.308;2022-07-01T02:38:24;14.10;99.90
41471;DHT22;27211;51.220;5.308;2022-07-01T02:40:50;14.20;99.90
41471;DHT22;27211;51.220;5.308;2022-07-01T02:43:37;14.40;99.90
41471;DHT22;27211;51.220;5.308;2022-07-01T02:46:11;14.50;99.90
41471;DHT22;27211;51.220;5.308;2022-07-01T02:48:50;14.40;99.90
41471;DHT22;27211;51.220;5.308;2022-07-01T02:51:16;14.40;99.90
41471;DHT22;27211;51.220;5.308;2022-07-01T02:53:41;14.30;99.90
41471;DHT22;27211;51.220;5.308;2022-07-01T02:56:10;14.10;99.90
41471;DHT22;27211;51.220;5.308;2022-07-01T02:58:35;14.10;99.90
41471;DHT22;27211;51.220;5.308;2022-07-01T03:01:04;14.20;99.90
41471;DHT22;27211;51.220;5.308;2022-07-01T03:03:42;14.30;99.90
41471;DHT22;27211;51.220;5.308;2022-07-01T03:06:13;14.30;99.90
41471;DHT22;27211;51.220;5.308;2022-07-01T03:08:41;14.30;99.90
41471;DHT22;27211;51.220;5.308;2022-07-01T03:11:07;14.20;99.90
41471;DHT22;27211;51.220;5.308;2022-07-01T03:13:36;14.50;99.90
41471;DHT22;27211;51.220;5.308;2022-07-01T03:16:04;14.50;99.90
41471;DHT22;27211;51.220;5.308;2022-07-01T03:18:40;14.60;99.90
41471;DHT22;27211;51.220;5.308;2022-07-01T03:21:14;14.50;99.90
41471;DHT22;27211;51.220;5.308;2022-07-01T03:23:50;14.50;99.90
41471;DHT22;27211;51.220;5.308;2022-07-01T03:26:19;14.40;99.90
41471;DHT22;27211;51.220;5.308;2022-07-01T03:28:45;14.40;99.90
41471;DHT22;27211;51.220;5.308;2022-07-01T03:31:24;14.40;99.90
41471;DHT22;27211;51.220;5.308;2022-07-01T03:33:52;14.50;99.90
41471;DHT22;27211;51.220;5.308;2022-07-01T03:36:18;14.60;99.90
41471;DHT22;27211;51.220;5.308;2022-07-01T03:38:43;14.60;99.90
41471;DHT22;27211;51.220;5.308;2022-07-01T03:41:09;14.60;99.90
41471;DHT22;27211;51.220;5.308;2022-07-01T03:43:36;14.60;99.90
41471;DHT22;27211;51.220;5.308;2022-07-01T03:46:09;14.60;99.90
41471;DHT22;27211;51.220;5.308;2022-07-01T03:48:37;14.70;99.90
41471;DHT22;27211;51.220;5.308;2022-07-01T03:51:06;14.70;99.90
41471;DHT22;27211;51.220;5.308;2022-07-01T03:53:34;14.60;99.90
41471;DHT22;27211;51.220;5.308;2022-07-01T03:56:21;14.40;99.90
41471;DHT22;27211;51.220;5.308;2022-07-01T03:58:49;14.60;99.90
41471;DHT22;27211;51.220;5.308;2022-07-01T04:01:18;14.50;99.90
41471;DHT22;27211;51.220;5.308;2022-07-01T04:03:55;14.30;99.90
41471;DHT22;27211;51.220;5.308;2022-07-01T04:06:20;14.20;99.90
41471;DHT22;27211;51.220;5.308;2022-07-01T04:08:47;14.30;99.90
41471;DHT22;27211;51.220;5.308;2022-07-01T04:11:15;14.50;99.90
41471;DHT22;27211;51.220;5.308;2022-07-01T04:13:41;14.40;99.90
41471;DHT22;27211;51.220;5.308;2022-07-01T04:16:09;14.50;99.90
41471;DHT22;27211;51.220;5.308;2022-07-01T04:18:35;14.40;99.90
41471;DHT22;27211;51.220;5.308;2022-07-01T04:21:01;14.50;99.90
41471;DHT22;27211;51.220;5.308;2022-07-01T04:23:45;14.70;99.90
41471;DHT22;27211;51.220;5.308;2022-07-01T04:26:14;14.80;99.90
41471;DHT22;27211;51.220;5.308;2022-07-01T04:28:51;15.00;99.90
41471;DHT22;27211;51.220;5.308;2022-07-01T04:31:23;14.90;99.90
41471;DHT22;27211;51.220;5.308;2022-07-01T04:33:56;14.80;99.90
41471;DHT22;27211;51.220;5.308;2022-07-01T04:36:24;14.70;99.90
41471;DHT22;27211;51.220;5.308;2022-07-01T04:38:50;14.60;99.90
41471;DHT22;27211;51.220;5.308;2022-07-01T04:41:26;14.60;99.90
41471;DHT22;27211;51.220;5.308;2022-07-01T04:44:11;14.80;99.90
41471;DHT22;27211;51.220;5.308;2022-07-01T04:46:36;14.60;99.90
41471;DHT22;27211;51.220;5.308;2022-07-01T04:49:02;14.50;99.90
41471;DHT22;27211;51.220;5.308;2022-07-01T04:51:30;14.60;99.90
41471;DHT22;27211;51.220;5.308;2022-07-01T04:54:06;14.80;99.90
41471;DHT22;27211;51.220;5.308;2022-07-01T04:56:36;14.80;99.90
41471;DHT22;27211;51.220;5.308;2022-07-01T04:59:03;14.90;99.90
41471;DHT22;27211;51.220;5.308;2022-07-01T05:01:29;14.80;99.90
41471;DHT22;27211;51.220;5.308;2022-07-01T05:03:59;14.90;99.90
41471;DHT22;27211;51.220;5.308;2022-07-01T05:06:28;14.80;99.90
41471;DHT22;27211;51.220;5.308;2022-07-01T05:08:54;14.80;99.90
41471;DHT22;27211;51.220;5.308;2022-07-01T05:11:28;14.70;99.90
41471;DHT22;27211;51.220;5.308;2022-07-01T05:13:54;14.60;99.90
41471;DHT22;27211;51.220;5.308;2022-07-01T05:16:20;14.90;99.90
41471;DHT22;27211;51.220;5.308;2022-07-01T05:18:50;15.00;99.90
41471;DHT22;27211;51.220;5.308;2022-07-01T05:21:35;15.00;99.90
41471;DHT22;27211;51.220;5.308;2022-07-01T05:24:19;15.20;99.90
41471;DHT22;27211;51.220;5.308;2022-07-01T05:26:45;15.30;99.90
41471;DHT22;27211;51.220;5.308;2022-07-01T05:29:11;15.10;99.90
41471;DHT22;27211;51.220;5.308;2022-07-01T05:31:38;15.10;99.90
41471;DHT22;27211;51.220;5.308;2022-07-01T05:34:03;15.30;99.90
41471;DHT22;27211;51.220;5.308;2022-07-01T05:36:29;15.30;99.90
41471;DHT22;27211;51.220;5.308;2022-07-01T05:38:55;15.30;99.90
41471;DHT22;27211;51.220;5.308;2022-07-01T05:41:21;15.30;99.90
41471;DHT22;27211;51.220;5.308;2022-07-01T05:43:46;15.40;99.90
41471;DHT22;27211;51.220;5.308;2022-07-01T05:46:13;15.30;99.90
41471;DHT22;27211;51.220;5.308;2022-07-01T05:48:39;15.40;99.90
41471;DHT22;27211;51.220;5.308;2022-07-01T05:51:05;15.50;99.90
41471;DHT22;27211;51.220;5.308;2022-07-01T05:53:31;15.40;99.90
41471;DHT22;27211;51.220;5.308;2022-07-01T05:55:56;15.40;99.90
41471;DHT22;27211;51.220;5.308;2022-07-01T05:58:22;15.50;99.90
41471;DHT22;27211;51.220;5.308;2022-07-01T06:00:48;15.70;99.90
41471;DHT22;27211;51.220;5.308;2022-07-01T06:03:14;16.00;99.90
41471;DHT22;27211;51.220;5.308;2022-07-01T06:05:41;16.10;99.90
41471;DHT22;27211;51.220;5.308;2022-07-01T06:08:07;16.30;99.90
41471;DHT22;27211;51.220;5.308;2022-07-01T06:10:34;16.10;99.90
41471;DHT22;27211;51.220;5.308;2022-07-01T06:13:00;16.00;99.90
41471;DHT22;27211;51.220;5.308;2022-07-01T06:15:27;16.20;99.90
41471;DHT22;27211;51.220;5.308;2022-07-01T06:17:54;16.30;99.90
41471;DHT22;27211;51.220;5.308;2022-07-01T06:20:20;16.50;99.90
41471;DHT22;27211;51.220;5.308;2022-07-01T06:22:46;17.00;99.90
41471;DHT22;27211;51.220;5.308;2022-07-01T06:25:13;17.40;99.90
41471;DHT22;27211;51.220;5.308;2022-07-01T06:27:39;17.20;99.90
41471;DHT22;27211;51.220;5.308;2022-07-01T06:30:06;17.10;99.90
41471;DHT22;27211;51.220;5.308;2022-07-01T06:32:33;17.10;99.90
41471;DHT22;27211;51.220;5.308;2022-07-01T06:34:59;17.30;99.90
41471;DHT22;27211;51.220;5.308;2022-07-01T06:37:24;17.40;99.90
41471;DHT22;27211;51.220;5.308;2022-07-01T06:39:50;18.00;99.90
41471;DHT22;27211;51.220;5.308;2022-07-01T06:42:16;18.30;99.90
41471;DHT22;27211;51.220;5.308;2022-07-01T06:44:42;18.90;99.90
41471;DHT22;27211;51.220;5.308;2022-07-01T06:47:08;19.30;99.90
41471;DHT22;27211;51.220;5.308;2022-07-01T06:49:35;19.40;99.90
41471;DHT22;27211;51.220;5.308;2022-07-01T06:52:00;19.80;99.90
41471;DHT22;27211;51.220;5.308;2022-07-01T06:54:27;19.80;99.90
41471;DHT22;27211;51.220;5.308;2022-07-01T06:56:54;19.90;99.90
41471;DHT22;27211;51.220;5.308;2022-07-01T06:59:20;19.80;99.90
41471;DHT22;27211;51.220;5.308;2022-07-01T07:01:47;20.00;99.90
41471;DHT22;27211;51.220;5.308;2022-07-01T07:04:13;19.80;99.90
41471;DHT22;27211;51.220;5.308;2022-07-01T07:06:38;19.60;99.90
41471;DHT22;27211;51.220;5.308;2022-07-01T07:09:04;19.80;99.90
41471;DHT22;27211;51.220;5.308;2022-07-01T07:11:30;20.00;99.90
41471;DHT22;27211;51.220;5.308;2022-07-01T07:13:56;20.20;99.90
41471;DHT22;27211;51.220;5.308;2022-07-01T07:16:22;20.60;99.90
41471;DHT22;27211;51.220;5.308;2022-07-01T07:18:49;20.10;99.90
41471;DHT22;27211;51.220;5.308;2022-07-01T07:21:15;20.00;99.90
41471;DHT22;27211;51.220;5.308;2022-07-01T07:23:41;20.10;99.90
41471;DHT22;27211;51.220;5.308;2022-07-01T07:26:08;20.50;99.90
41471;DHT22;27211;51.220;5.308;2022-07-01T07:28:34;20.80;99.90
41471;DHT22;27211;51.220;5.308;2022-07-01T07:31:00;21.00;99.90
41471;DHT22;27211;51.220;5.308;2022-07-01T07:33:25;21.40;99.90
41471;DHT22;27211;51.220;5.308;2022-07-01T07:35:51;21.60;99.90
41471;DHT22;27211;51.220;5.308;2022-07-01T07:38:17;21.50;99.90
41471;DHT22;27211;51.220;5.308;2022-07-01T07:40:43;21.60;99.90
41471;DHT22;27211;51.220;5.308;2022-07-01T07:43:09;22.00;99.90
41471;DHT22;27211;51.220;5.308;2022-07-01T07:45:35;22.40;99.90
41471;DHT22;27211;51.220;5.308;2022-07-01T07:48:01;22.80;99.90
41471;DHT22;27211;51.220;5.308;2022-07-01T07:50:27;23.30;99.90
41471;DHT22;27211;51.220;5.308;2022-07-01T07:52:53;23.20;99.30
41471;DHT22;27211;51.220;5.308;2022-07-01T07:55:19;23.00;99.90
41471;DHT22;27211;51.220;5.308;2022-07-01T07:57:45;23.20;99.90
41471;DHT22;27211;51.220;5.308;2022-07-01T08:00:12;23.30;99.70
41471;DHT22;27211;51.220;5.308;2022-07-01T08:02:39;23.40;99.90
41471;DHT22;27211;51.220;5.308;2022-07-01T08:05:07;23.50;99.90
41471;DHT22;27211;51.220;5.308;2022-07-01T08:07:38;24.20;96.90
41471;DHT22;27211;51.220;5.308;2022-07-01T08:10:05;24.20;97.50
41471;DHT22;27211;51.220;5.308;2022-07-01T08:12:32;24.20;96.50
41471;DHT22;27211;51.220;5.308;2022-07-01T08:14:58;24.00;96.50
41471;DHT22;27211;51.220;5.308;2022-07-01T08:17:24;24.30;97.20
41471;DHT22;27211;51.220;5.308;2022-07-01T08:19:50;24.60;96.90
41471;DHT22;27211;51.220;5.308;2022-07-01T08:22:16;24.00;95.60
41471;DHT22;27211;51.220;5.308;2022-07-01T08:24:42;24.60;95.30
41471;DHT22;27211;51.220;5.308;2022-07-01T08:27:08;24.80;95.10
41471;DHT22;27211;51.220;5.308;2022-07-01T08:29:33;24.70;95.70
41471;DHT22;27211;51.220;5.308;2022-07-01T08:32:00;24.80;95.20
41471;DHT22;27211;51.220;5.308;2022-07-01T08:34:25;25.10;94.10
41471;DHT22;27211;51.220;5.308;2022-07-01T08:36:52;25.30;93.80
41471;DHT22;27211;51.220;5.308;2022-07-01T08:39:17;25.30;92.70
41471;DHT22;27211;51.220;5.308;2022-07-01T08:41:44;24.80;93.60
41471;DHT22;27211;51.220;5.308;2022-07-01T08:44:11;24.80;92.30
41471;DHT22;27211;51.220;5.308;2022-07-01T08:46:36;24.90;92.30
41471;DHT22;27211;51.220;5.308;2022-07-01T08:49:03;25.50;91.70
41471;DHT22;27211;51.220;5.308;2022-07-01T08:51:29;26.00;91.90
41471;DHT22;27211;51.220;5.308;2022-07-01T08:53:55;26.70;90.20
41471;DHT22;27211;51.220;5.308;2022-07-01T08:56:21;26.60;89.30
41471;DHT22;27211;51.220;5.308;2022-07-01T08:59:06;27.00;88.90
41471;DHT22;27211;51.220;5.308;2022-07-01T09:01:33;26.50;87.40
41471;DHT22;27211;51.220;5.308;2022-07-01T09:04:19;26.90;87.10
41471;DHT22;27211;51.220;5.308;2022-07-01T09:06:46;26.70;85.50
41471;DHT22;27211;51.220;5.308;2022-07-01T09:09:20;25.30;88.80
41471;DHT22;27211;51.220;5.308;2022-07-01T09:11:54;25.50;90.00
41471;DHT22;27211;51.220;5.308;2022-07-01T09:14:28;25.80;87.90
41471;DHT22;27211;51.220;5.308;2022-07-01T09:16:57;25.80;86.40
41471;DHT22;27211;51.220;5.308;2022-07-01T09:19:28;26.70;86.70
41471;DHT22;27211;51.220;5.308;2022-07-01T09:21:59;26.90;84.20
41471;DHT22;27211;51.220;5.308;2022-07-01T09:24:37;26.70;82.90
41471;DHT22;27211;51.220;5.308;2022-07-01T09:27:11;25.70;85.00
41471;DHT22;27211;51.220;5.308;2022-07-01T09:29:44;25.30;86.70
41471;DHT22;27211;51.220;5.308;2022-07-01T09:32:12;25.70;85.50
41471;DHT22;27211;51.220;5.308;2022-07-01T09:34:46;25.10;88.60
41471;DHT22;27211;51.220;5.308;2022-07-01T09:37:14;24.20;90.70
41471;DHT22;27211;51.220;5.308;2022-07-01T09:39:48;24.80;90.00
41471;DHT22;27211;51.220;5.308;2022-07-01T09:42:16;25.10;89.60
41471;DHT22;27211;51.220;5.308;2022-07-01T09:45:02;25.00;88.50
41471;DHT22;27211;51.220;5.308;2022-07-01T09:47:31;26.40;86.30
41471;DHT22;27211;51.220;5.308;2022-07-01T09:49:57;26.90;83.20
41471;DHT22;27211;51.220;5.308;2022-07-01T09:52:24;25.60;83.90
41471;DHT22;27211;51.220;5.308;2022-07-01T09:54:51;25.50;84.90
41471;DHT22;27211;51.220;5.308;2022-07-01T09:57:18;25.50;84.70
41471;DHT22;27211;51.220;5.308;2022-07-01T09:59:45;26.60;84.60
41471;DHT22;27211;51.220;5.308;2022-07-01T10:02:11;26.90;82.50
41471;DHT22;27211;51.220;5.308;2022-07-01T10:04:40;26.70;81.20
41471;DHT22;27211;51.220;5.308;2022-07-01T10:12:42;24.90;87.00
41471;DHT22;27211;51.220;5.308;2022-07-01T10:15:10;25.10;86.10
41471;DHT22;27211;51.220;5.308;2022-07-01T10:17:42;25.10;85.80
41471;DHT22;27211;51.220;5.308;2022-07-01T10:20:14;25.70;83.20
41471;DHT22;27211;51.220;5.308;2022-07-01T10:22:42;26.10;84.10
41471;DHT22;27211;51.220;5.308;2022-07-01T10:28:22;27.60;78.70
41471;DHT22;27211;51.220;5.308;2022-07-01T10:30:50;27.20;77.90
41471;DHT22;27211;51.220;5.308;2022-07-01T10:33:38;27.10;78.20
41471;DHT22;27211;51.220;5.308;2022-07-01T10:41:26;28.30;77.20
41471;DHT22;27211;51.220;5.308;2022-07-01T10:43:56;28.70;76.70
41471;DHT22;27211;51.220;5.308;2022-07-01T10:49:13;27.50;75.80
41471;DHT22;27211;51.220;5.308;2022-07-01T10:51:49;27.20;76.60
41471;DHT22;27211;51.220;5.308;2022-07-01T10:59:50;25.80;79.10
41471;DHT22;27211;51.220;5.308;2022-07-01T11:02:21;25.50;80.30
41471;DHT22;27211;51.220;5.308;2022-07-01T11:04:48;24.80;82.70
41471;DHT22;27211;51.220;5.308;2022-07-01T11:07:15;25.00;83.00
41471;DHT22;27211;51.220;5.308;2022-07-01T11:09:43;25.10;81.80
41471;DHT22;27211;51.220;5.308;2022-07-01T11:12:09;24.70;81.70
41471;DHT22;27211;51.220;5.308;2022-07-01T11:14:40;24.40;81.60
41471;DHT22;27211;51.220;5.308;2022-07-01T11:17:06;24.10;84.00
41471;DHT22;27211;51.220;5.308;2022-07-01T11:19:33;23.90;84.00
41471;DHT22;27211;51.220;5.308;2022-07-01T11:22:02;24.00;86.20
41471;DHT22;27211;51.220;5.308;2022-07-01T11:24:28;23.80;86.40
41471;DHT22;27211;51.220;5.308;2022-07-01T11:27:07;23.60;87.70
41471;DHT22;27211;51.220;5.308;2022-07-01T11:29:33;23.70;88.60
41471;DHT22;27211;51.220;5.308;2022-07-01T11:31:59;24.40;87.90
41471;DHT22;27211;51.220;5.308;2022-07-01T11:34:29;24.90;85.70
41471;DHT22;27211;51.220;5.308;2022-07-01T11:36:56;24.80;85.70
41471;DHT22;27211;51.220;5.308;2022-07-01T11:39:41;24.40;84.50
41471;DHT22;27211;51.220;5.308;2022-07-01T11:42:09;24.10;85.20
41471;DHT22;27211;51.220;5.308;2022-07-01T11:44:44;24.10;85.30
41471;DHT22;27211;51.220;5.308;2022-07-01T11:47:12;24.50;83.80
41471;DHT22;27211;51.220;5.308;2022-07-01T11:49:48;25.60;82.40
41471;DHT22;27211;51.220;5.308;2022-07-01T11:52:16;26.30;78.30
41471;DHT22;27211;51.220;5.308;2022-07-01T11:54:49;26.20;79.60
41471;DHT22;27211;51.220;5.308;2022-07-01T11:57:20;26.00;78.20
41471;DHT22;27211;51.220;5.308;2022-07-01T11:59:48;26.10;77.80
41471;DHT22;27211;51.220;5.308;2022-07-01T12:02:16;26.40;77.50
41471;DHT22;27211;51.220;5.308;2022-07-01T12:04:44;26.70;77.80
41471;DHT22;27211;51.220;5.308;2022-07-01T12:07:12;26.10;76.40
41471;DHT22;27211;51.220;5.308;2022-07-01T12:09:39;25.90;77.00
41471;DHT22;27211;51.220;5.308;2022-07-01T12:12:06;26.90;77.80
41471;DHT22;27211;51.220;5.308;2022-07-01T12:14:34;27.70;73.90
41471;DHT22;27211;51.220;5.308;2022-07-01T12:17:06;28.00;75.20
41471;DHT22;27211;51.220;5.308;2022-07-01T12:19:41;28.20;74.10
41471;DHT22;27211;51.220;5.308;2022-07-01T12:22:10;28.10;75.20
41471;DHT22;27211;51.220;5.308;2022-07-01T12:24:36;27.80;72.70
41471;DHT22;27211;51.220;5.308;2022-07-01T12:27:03;28.20;75.00
41471;DHT22;27211;51.220;5.308;2022-07-01T12:32:11;29.40;70.90
41471;DHT22;27211;51.220;5.308;2022-07-01T12:37:13;29.20;69.10
41471;DHT22;27211;51.220;5.308;2022-07-01T12:39:48;29.60;68.00
41471;DHT22;27211;51.220;5.308;2022-07-01T12:42:28;29.10;70.20
41471;DHT22;27211;51.220;5.308;2022-07-01T12:44:56;29.90;69.50
41471;DHT22;27211;51.220;5.308;2022-07-01T12:47:33;29.70;69.30
41471;DHT22;27211;51.220;5.308;2022-07-01T12:50:24;29.70;68.70
41471;DHT22;27211;51.220;5.308;2022-07-01T12:53:01;28.90;69.30
41471;DHT22;27211;51.220;5.308;2022-07-01T12:55:35;28.30;69.50
41471;DHT22;27211;51.220;5.308;2022-07-01T12:58:03;28.60;71.40
41471;DHT22;27211;51.220;5.308;2022-07-01T13:00:30;28.60;69.90
41471;DHT22;27211;51.220;5.308;2022-07-01T13:02:59;28.80;69.10
41471;DHT22;27211;51.220;5.308;2022-07-01T13:05:27;27.90;70.80
41471;DHT22;27211;51.220;5.308;2022-07-01T13:07:56;27.90;71.60
41471;DHT22;27211;51.220;5.308;2022-07-01T13:10:23;27.50;70.60
41471;DHT22;27211;51.220;5.308;2022-07-01T13:12:49;27.30;71.10
41471;DHT22;27211;51.220;5.308;2022-07-01T13:15:17;28.00;71.20
41471;DHT22;27211;51.220;5.308;2022-07-01T13:17:43;28.70;67.90
41471;DHT22;27211;51.220;5.308;2022-07-01T13:20:10;28.30;69.10
41471;DHT22;27211;51.220;5.308;2022-07-01T13:22:36;27.90;69.00
41471;DHT22;27211;51.220;5.308;2022-07-01T13:25:03;28.50;68.10
41471;DHT22;27211;51.220;5.308;2022-07-01T13:27:29;29.00;68.50
41471;DHT22;27211;51.220;5.308;2022-07-01T13:29:55;29.10;68.60
41471;DHT22;27211;51.220;5.308;2022-07-01T13:32:22;28.80;68.10
41471;DHT22;27211;51.220;5.308;2022-07-01T13:34:49;28.20;69.30
41471;DHT22;27211;51.220;5.308;2022-07-01T13:37:15;29.10;69.20
41471;DHT22;27211;51.220;5.308;2022-07-01T13:39:41;29.80;67.80
41471;DHT22;27211;51.220;5.308;2022-07-01T13:42:07;28.90;67.30
41471;DHT22;27211;51.220;5.308;2022-07-01T13:44:33;28.40;66.80
41471;DHT22;27211;51.220;5.308;2022-07-01T13:47:00;27.40;68.60
41471;DHT22;27211;51.220;5.308;2022-07-01T13:49:28;27.40;68.10
41471;DHT22;27211;51.220;5.308;2022-07-01T13:51:54;28.20;67.70
41471;DHT22;27211;51.220;5.308;2022-07-01T13:54:20;28.90;65.20
41471;DHT22;27211;51.220;5.308;2022-07-01T13:56:46;29.40;65.80
41471;DHT22;27211;51.220;5.308;2022-07-01T13:59:12;29.30;65.00
41471;DHT22;27211;51.220;5.308;2022-07-01T14:01:38;29.10;64.40
41471;DHT22;27211;51.220;5.308;2022-07-01T14:04:04;29.30;65.80
41471;DHT22;27211;51.220;5.308;2022-07-01T14:06:30;28.50;67.00
41471;DHT22;27211;51.220;5.308;2022-07-01T14:08:56;28.60;65.40
41471;DHT22;27211;51.220;5.308;2022-07-01T14:11:22;29.20;65.50
41471;DHT22;27211;51.220;5.308;2022-07-01T14:13:48;29.80;65.50
41471;DHT22;27211;51.220;5.308;2022-07-01T14:16:14;29.10;64.60
41471;DHT22;27211;51.220;5.308;2022-07-01T14:18:40;28.30;66.20
41471;DHT22;27211;51.220;5.308;2022-07-01T14:21:06;27.00;69.10
41471;DHT22;27211;51.220;5.308;2022-07-01T14:23:33;26.50;68.60
41471;DHT22;27211;51.220;5.308;2022-07-01T14:26:09;25.90;70.20
41471;DHT22;27211;51.220;5.308;2022-07-01T14:28:34;25.70;70.20
41471;DHT22;27211;51.220;5.308;2022-07-01T14:31:00;25.40;71.10
41471;DHT22;27211;51.220;5.308;2022-07-01T14:33:26;25.50;71.90
41471;DHT22;27211;51.220;5.308;2022-07-01T14:35:55;25.40;71.50
41471;DHT22;27211;51.220;5.308;2022-07-01T14:38:20;25.40;71.50
41471;DHT22;27211;51.220;5.308;2022-07-01T14:40:46;24.70;71.90
41471;DHT22;27211;51.220;5.308;2022-07-01T14:43:12;24.40;72.30
41471;DHT22;27211;51.220;5.308;2022-07-01T14:45:56;24.10;72.30
41471;DHT22;27211;51.220;5.308;2022-07-01T14:48:29;23.70;73.10
41471;DHT22;27211;51.220;5.308;2022-07-01T14:50:55;23.50;73.60
41471;DHT22;27211;51.220;5.308;2022-07-01T14:53:23;23.50;74.50
41471;DHT22;27211;51.220;5.308;2022-07-01T14:55:49;23.60;74.70
41471;DHT22;27211;51.220;5.308;2022-07-01T14:58:17;23.40;73.80
41471;DHT22;27211;51.220;5.308;2022-07-01T15:00:48;23.40;73.40
41471;DHT22;27211;51.220;5.308;2022-07-01T15:03:19;23.50;72.90
41471;DHT22;27211;51.220;5.308;2022-07-01T15:05:45;23.70;73.20
41471;DHT22;27211;51.220;5.308;2022-07-01T15:08:11;23.80;73.70
41471;DHT22;27211;51.220;5.308;2022-07-01T15:10:40;23.90;72.70
41471;DHT22;27211;51.220;5.308;2022-07-01T15:13:06;24.20;73.00
41471;DHT22;27211;51.220;5.308;2022-07-01T15:15:32;24.30;77.90
41471;DHT22;27211;51.220;5.308;2022-07-01T15:17:58;24.60;79.20
41471;DHT22;27211;51.220;5.308;2022-07-01T15:20:24;24.60;81.70
41471;DHT22;27211;51.220;5.308;2022-07-01T15:22:49;24.50;83.00
41471;DHT22;27211;51.220;5.308;2022-07-01T15:25:16;24.60;83.90
41471;DHT22;27211;51.220;5.308;2022-07-01T15:27:42;24.60;85.20
41471;DHT22;27211;51.220;5.308;2022-07-01T15:30:09;24.90;83.30
41471;DHT22;27211;51.220;5.308;2022-07-01T15:32:35;24.70;81.00
41471;DHT22;27211;51.220;5.308;2022-07-01T15:35:01;24.70;82.50
41471;DHT22;27211;51.220;5.308;2022-07-01T15:37:30;24.70;83.20
41471;DHT22;27211;51.220;5.308;2022-07-01T15:39:56;24.40;83.80
41471;DHT22;27211;51.220;5.308;2022-07-01T15:42:21;24.40;85.30
41471;DHT22;27211;51.220;5.308;2022-07-01T15:44:48;24.50;85.00
41471;DHT22;27211;51.220;5.308;2022-07-01T15:47:13;24.10;85.90
41471;DHT22;27211;51.220;5.308;2022-07-01T15:49:58;23.40;88.40
41471;DHT22;27211;51.220;5.308;2022-07-01T15:52:24;23.10;90.60
41471;DHT22;27211;51.220;5.308;2022-07-01T15:54:53;23.30;90.70
41471;DHT22;27211;51.220;5.308;2022-07-01T15:57:19;23.00;90.50
41471;DHT22;27211;51.220;5.308;2022-07-01T15:59:45;23.10;90.30
41471;DHT22;27211;51.220;5.308;2022-07-01T16:02:12;23.10;90.30
41471;DHT22;27211;51.220;5.308;2022-07-01T16:04:44;23.40;90.50
41471;DHT22;27211;51.220;5.308;2022-07-01T16:07:14;23.30;89.50
41471;DHT22;27211;51.220;5.308;2022-07-01T16:09:41;23.10;90.50